sensor_id;sensor_type;location;lat;lon;timestamp;pressure;altitude;pressure_sealevel;temperature;humidity
54872;BME280;43914;57.680;11.982;2023-02-02T00:01:52;99555.63;;;-0.62;99.33
54872;BME280;43914;57.680;11.982;2023-02-02T00:04:30;99559.30;;;-0.64;99.67
54872;BME280;43914;57.680;11.982;2023-02-02T00:06:56;99565.21;;;-0.65;99.06
54872;BME280;43914;57.680;11.982;2023-02-02T00:09:23;99568.71;;;-0.67;99.51
54872;BME280;43914;57.680;11.982;2023-02-02T00:11:50;99571.19;;;-0.65;99.83
54872;BME280;43914;57.680;11.982;2023-02-02T00:14:16;99579.75;;;-0.64;99.46
54872;BME280;43914;57.680;11.982;2023-02-02T00:16:43;99585.55;;;-0.66;99.12
54872;BME280;43914;57.680;11.982;2023-02-02T00:19:15;99589.36;;;-0.69;99.07
54872;BME280;43914;57.680;11.982;2023-02-02T00:21:42;99592.57;;;-0.72;99.13
54872;BME280;43914;57.680;11.982;2023-02-02T00:24:10;99592.73;;;-0.72;99.53
54872;BME280;43914;57.680;11.982;2023-02-02T00:26:37;99595.98;;;-0.71;99.40
54872;BME280;43914;57.680;11.982;2023-02-02T00:29:03;99604.34;;;-0.74;99.09
54872;BME280;43914;57.680;11.982;2023-02-02T00:31:29;99603.75;;;-0.77;98.67
54872;BME280;43914;57.680;11.982;2023-02-02T00:33:55;99608.16;;;-0.81;98.94
54872;BME280;43914;57.680;11.982;2023-02-02T00:36:21;99613.86;;;-0.82;99.21
54872;BME280;43914;57.680;11.982;2023-02-02T00:38:48;99616.14;;;-0.84;99.13
54872;BME280;43914;57.680;11.982;2023-02-02T00:41:14;99625.33;;;-0.82;99.81
54872;BME280;43914;57.680;11.982;2023-02-02T00:43:40;99628.77;;;-0.81;99.77
54872;BME280;43914;57.680;11.982;2023-02-02T00:46:16;99639.02;;;-0.80;99.74
54872;BME280;43914;57.680;11.982;2023-02-02T00:48:43;99647.59;;;-0.81;99.00
54872;BME280;43914;57.680;11.982;2023-02-02T00:51:08;99643.98;;;-0.84;99.35
54872;BME280;43914;57.680;11.982;2023-02-02T00:53:35;99648.06;;;-0.83;99.70
54872;BME280;43914;57.680;11.982;2023-02-02T00:56:00;99649.17;;;-0.83;99.31
54872;BME280;43914;57.680;11.982;2023-02-02T00:58:29;99652.09;;;-0.87;99.17
54872;BME280;43914;57.680;11.982;2023-02-02T01:00:55;99659.11;;;-0.89;99.07
54872;BME280;43914;57.680;11.982;2023-02-02T01:03:21;99660.39;;;-0.91;99.07
54872;BME280;43914;57.680;11.982;2023-02-02T01:05:46;99666.02;;;-0.93;99.10
54872;BME280;43914;57.680;11.982;2023-02-02T01:08:14;99677.86;;;-0.96;99.10
54872;BME280;43914;57.680;11.982;2023-02-02T01:10:39;99682.36;;;-0.99;99.18
54872;BME280;43914;57.680;11.982;2023-02-02T01:13:05;99692.23;;;-0.99;99.31
54872;BME280;43914;57.680;11.982;2023-02-02T01:15:31;99701.42;;;-1.02;99.23
54872;BME280;43914;57.680;11.982;2023-02-02T01:17:56;99703.93;;;-1.04;98.99
54872;BME280;43914;57.680;11.982;2023-02-02T01:20:23;99708.20;;;-1.05;99.39
54872;BME280;43914;57.680;11.982;2023-02-02T01:22:48;99707.56;;;-1.05;99.18
54872;BME280;43914;57.680;11.982;2023-02-02T01:25:14;99715.23;;;-1.07;98.91
54872;BME280;43914;57.680;11.982;2023-02-02T01:27:40;99717.95;;;-1.08;98.96
54872;BME280;43914;57.680;11.982;2023-02-02T01:30:06;99723.65;;;-1.09;98.96
54872;BME280;43914;57.680;11.982;2023-02-02T01:32:32;99734.34;;;-1.08;99.02
54872;BME280;43914;57.680;11.982;2023-02-02T01:34:57;99739.92;;;-1.08;99.14
54872;BME280;43914;57.680;11.982;2023-02-02T01:37:23;99749.10;;;-1.06;99.12
54872;BME280;43914;57.680;11.982;2023-02-02T01:39:48;99755.14;;;-1.07;98.57
54872;BME280;43914;57.680;11.982;2023-02-02T01:42:20;99760.81;;;-1.08;98.53
54872;BME280;43914;57.680;11.982;2023-02-02T01:47:40;99757.91;;;-1.06;98.31
54872;BME280;43914;57.680;11.982;2023-02-02T01:50:09;99770.48;;;-1.07;98.14
54872;BME280;43914;57.680;11.982;2023-02-02T01:52:36;99773.78;;;-1.09;97.93
54872;BME280;43914;57.680;11.982;2023-02-02T01:55:07;99773.29;;;-1.11;97.53
54872;BME280;43914;57.680;11.982;2023-02-02T01:57:40;99778.16;;;-1.15;97.28
54872;BME280;43914;57.680;11.982;2023-02-02T02:00:11;99778.53;;;-1.20;97.28
54872;BME280;43914;57.680;11.982;2023-02-02T02:02:44;99781.42;;;-1.24;97.38
54872;BME280;43914;57.680;11.982;2023-02-02T02:05:11;99789.84;;;-1.28;97.58
54872;BME280;43914;57.680;11.982;2023-02-02T02:07:42;99800.67;;;-1.34;97.56
54872;BME280;43914;57.680;11.982;2023-02-02T02:10:09;99809.89;;;-1.39;97.57
54872;BME280;43914;57.680;11.982;2023-02-02T02:12:34;99816.72;;;-1.45;97.70
54872;BME280;43914;57.680;11.982;2023-02-02T02:15:00;99821.52;;;-1.50;97.82
54872;BME280;43914;57.680;11.982;2023-02-02T02:21:22;99840.04;;;-1.62;97.97
54872;BME280;43914;57.680;11.982;2023-02-02T02:31:06;99876.28;;;-1.80;98.06
54872;BME280;43914;57.680;11.982;2023-02-02T02:34:08;99888.27;;;-1.82;98.12
54872;BME280;43914;57.680;11.982;2023-02-02T02:42:43;99896.73;;;-1.96;98.59
54872;BME280;43914;57.680;11.982;2023-02-02T02:45:10;99896.48;;;-1.99;98.71
54872;BME280;43914;57.680;11.982;2023-02-02T02:47:38;99902.38;;;-2.03;98.69
54872;BME280;43914;57.680;11.982;2023-02-02T02:50:05;99901.42;;;-2.07;98.99
54872;BME280;43914;57.680;11.982;2023-02-02T02:52:33;99903.07;;;-2.10;99.12
54872;BME280;43914;57.680;11.982;2023-02-02T02:55:01;99910.19;;;-2.13;99.45
54872;BME280;43914;57.680;11.982;2023-02-02T03:00:29;99919.20;;;-2.23;99.51
54872;BME280;43914;57.680;11.982;2023-02-02T03:08:47;99929.00;;;-2.38;99.87
54872;BME280;43914;57.680;11.982;2023-02-02T03:11:14;99932.49;;;-2.40;99.93
54872;BME280;43914;57.680;11.982;2023-02-02T03:13:41;99937.56;;;-2.42;99.92
54872;BME280;43914;57.680;11.982;2023-02-02T03:16:08;99940.81;;;-2.45;99.92
54872;BME280;43914;57.680;11.982;2023-02-02T03:18:34;99944.24;;;-2.47;99.98
54872;BME280;43914;57.680;11.982;2023-02-02T03:21:03;99950.91;;;-2.49;100.00
54872;BME280;43914;57.680;11.982;2023-02-02T03:23:34;99960.19;;;-2.51;100.00
54872;BME280;43914;57.680;11.982;2023-02-02T03:26:01;99969.23;;;-2.52;100.00
54872;BME280;43914;57.680;11.982;2023-02-02T03:28:28;99975.84;;;-2.54;100.00
54872;BME280;43914;57.680;11.982;2023-02-02T03:30:56;99977.70;;;-2.55;100.00
54872;BME280;43914;57.680;11.982;2023-02-02T03:33:23;99979.09;;;-2.57;100.00
54872;BME280;43914;57.680;11.982;2023-02-02T03:35:54;99982.20;;;-2.59;100.00
54872;BME280;43914;57.680;11.982;2023-02-02T03:38:23;99990.39;;;-2.61;100.00
54872;BME280;43914;57.680;11.982;2023-02-02T03:40:55;99997.41;;;-2.63;100.00
54872;BME280;43914;57.680;11.982;2023-02-02T03:43:26;100007.98;;;-2.64;100.00
54872;BME280;43914;57.680;11.982;2023-02-02T03:46:00;100013.36;;;-2.68;100.00
54872;BME280;43914;57.680;11.982;2023-02-02T03:48:27;100025.56;;;-2.67;100.00
54872;BME280;43914;57.680;11.982;2023-02-02T03:50:53;100032.98;;;-2.70;100.00
54872;BME280;43914;57.680;11.982;2023-02-02T03:53:19;100034.68;;;-2.74;100.00
54872;BME280;43914;57.680;11.982;2023-02-02T03:55:45;100041.36;;;-2.77;100.00
54872;BME280;43914;57.680;11.982;2023-02-02T03:58:10;100042.40;;;-2.79;100.00
54872;BME280;43914;57.680;11.982;2023-02-02T04:00:36;100047.19;;;-2.82;100.00
54872;BME280;43914;57.680;11.982;2023-02-02T04:03:02;100050.83;;;-2.86;100.00
54872;BME280;43914;57.680;11.982;2023-02-02T04:05:34;100050.58;;;-2.90;100.00
54872;BME280;43914;57.680;11.982;2023-02-02T04:08:09;100056.19;;;-2.92;100.00
54872;BME280;43914;57.680;11.982;2023-02-02T04:10:35;100031.20;;;-3.10;100.00
54872;BME280;43914;57.680;11.982;2023-02-02T04:13:01;100056.27;;;-2.96;100.00
54872;BME280;43914;57.680;11.982;2023-02-02T04:15:27;100064.04;;;-2.96;100.00
54872;BME280;43914;57.680;11.982;2023-02-02T04:17:53;100069.95;;;-2.98;100.00
54872;BME280;43914;57.680;11.982;2023-02-02T04:20:19;100080.34;;;-2.99;100.00
54872;BME280;43914;57.680;11.982;2023-02-02T04:22:44;100084.68;;;-3.01;100.00
54872;BME280;43914;57.680;11.982;2023-02-02T04:25:10;100088.47;;;-3.02;100.00
54872;BME280;43914;57.680;11.982;2023-02-02T04:27:35;100092.83;;;-3.04;100.00
54872;BME280;43914;57.680;11.982;2023-02-02T04:30:01;100095.71;;;-3.06;100.00
54872;BME280;43914;57.680;11.982;2023-02-02T04:32:26;100099.48;;;-3.07;100.00
54872;BME280;43914;57.680;11.982;2023-02-02T04:34:52;100103.34;;;-3.09;100.00
54872;BME280;43914;57.680;11.982;2023-02-02T04:37:17;100109.65;;;-3.11;100.00
54872;BME280;43914;57.680;11.982;2023-02-02T04:39:43;100110.30;;;-3.13;100.00
54872;BME280;43914;57.680;11.982;2023-02-02T04:42:08;100118.20;;;-3.13;100.00
54872;BME280;43914;57.680;11.982;2023-02-02T04:44:34;100124.89;;;-3.14;100.00
54872;BME280;43914;57.680;11.982;2023-02-02T04:46:59;100130.55;;;-3.15;100.00
54872;BME280;43914;57.680;11.982;2023-02-02T04:49:25;100134.42;;;-3.15;100.00
54872;BME280;43914;57.680;11.982;2023-02-02T04:51:51;100142.36;;;-3.13;100.00
54872;BME280;43914;57.680;11.982;2023-02-02T04:54:17;100141.88;;;-3.13;100.00
54872;BME280;43914;57.680;11.982;2023-02-02T04:56:42;100143.92;;;-3.13;100.00
54872;BME280;43914;57.680;11.982;2023-02-02T04:59:08;100145.88;;;-3.13;100.00
54872;BME280;43914;57.680;11.982;2023-02-02T05:01:34;100145.25;;;-3.14;100.00
54872;BME280;43914;57.680;11.982;2023-02-02T05:03:59;100150.21;;;-3.15;100.00
54872;BME280;43914;57.680;11.982;2023-02-02T05:06:25;100152.52;;;-3.16;100.00
54872;BME280;43914;57.680;11.982;2023-02-02T05:08:50;100160.92;;;-3.15;100.00
54872;BME280;43914;57.680;11.982;2023-02-02T05:11:19;100164.13;;;-3.19;100.00
54872;BME280;43914;57.680;11.982;2023-02-02T05:13:47;100168.61;;;-3.20;100.00
54872;BME280;43914;57.680;11.982;2023-02-02T05:16:12;100177.88;;;-3.20;100.00
54872;BME280;43914;57.680;11.982;2023-02-02T05:18:39;100183.45;;;-3.24;100.00
54872;BME280;43914;57.680;11.982;2023-02-02T05:21:07;100188.98;;;-3.23;100.00
54872;BME280;43914;57.680;11.982;2023-02-02T05:23:32;100189.35;;;-3.23;100.00
54872;BME280;43914;57.680;11.982;2023-02-02T05:25:58;100188.83;;;-3.26;100.00
54872;BME280;43914;57.680;11.982;2023-02-02T05:28:24;100194.81;;;-3.26;100.00
54872;BME280;43914;57.680;11.982;2023-02-02T05:30:50;100199.98;;;-3.28;100.00
54872;BME280;43914;57.680;11.982;2023-02-02T05:33:16;100201.70;;;-3.30;100.00
54872;BME280;43914;57.680;11.982;2023-02-02T05:35:46;100202.14;;;-3.31;100.00
54872;BME280;43914;57.680;11.982;2023-02-02T05:38:11;100214.27;;;-3.34;100.00
54872;BME280;43914;57.680;11.982;2023-02-02T05:40:37;100222.73;;;-3.35;100.00
54872;BME280;43914;57.680;11.982;2023-02-02T05:43:04;100223.25;;;-3.37;100.00
54872;BME280;43914;57.680;11.982;2023-02-02T05:45:29;100226.59;;;-3.40;100.00
54872;BME280;43914;57.680;11.982;2023-02-02T05:47:55;100233.41;;;-3.42;100.00
54872;BME280;43914;57.680;11.982;2023-02-02T05:50:21;100234.79;;;-3.44;100.00
54872;BME280;43914;57.680;11.982;2023-02-02T05:52:47;100243.38;;;-3.47;100.00
54872;BME280;43914;57.680;11.982;2023-02-02T05:55:13;100244.77;;;-3.50;100.00
54872;BME280;43914;57.680;11.982;2023-02-02T05:57:39;100253.69;;;-3.52;100.00
54872;BME280;43914;57.680;11.982;2023-02-02T06:00:05;100263.61;;;-3.54;100.00
54872;BME280;43914;57.680;11.982;2023-02-02T06:02:30;100266.41;;;-3.56;100.00
54872;BME280;43914;57.680;11.982;2023-02-02T06:04:56;100275.35;;;-3.59;100.00
54872;BME280;43914;57.680;11.982;2023-02-02T06:07:21;100279.08;;;-3.60;100.00
54872;BME280;43914;57.680;11.982;2023-02-02T06:09:47;100285.80;;;-3.61;100.00
54872;BME280;43914;57.680;11.982;2023-02-02T06:12:12;100294.05;;;-3.61;100.00
54872;BME280;43914;57.680;11.982;2023-02-02T06:14:38;100297.95;;;-3.59;100.00
54872;BME280;43914;57.680;11.982;2023-02-02T06:17:03;100302.07;;;-3.61;100.00
54872;BME280;43914;57.680;11.982;2023-02-02T06:19:31;100308.63;;;-3.59;100.00
54872;BME280;43914;57.680;11.982;2023-02-02T06:21:56;100308.14;;;-3.60;100.00
54872;BME280;43914;57.680;11.982;2023-02-02T06:24:22;100310.61;;;-3.60;100.00
54872;BME280;43914;57.680;11.982;2023-02-02T06:26:49;100313.53;;;-3.62;100.00
54872;BME280;43914;57.680;11.982;2023-02-02T06:29:14;100314.15;;;-3.64;100.00
54872;BME280;43914;57.680;11.982;2023-02-02T06:31:40;100313.13;;;-3.64;100.00
54872;BME280;43914;57.680;11.982;2023-02-02T06:34:06;100311.45;;;-3.68;100.00
54872;BME280;43914;57.680;11.982;2023-02-02T06:36:32;100311.48;;;-3.71;100.00
54872;BME280;43914;57.680;11.982;2023-02-02T06:38:58;100323.40;;;-3.71;100.00
54872;BME280;43914;57.680;11.982;2023-02-02T06:41:24;100324.68;;;-3.72;100.00
54872;BME280;43914;57.680;11.982;2023-02-02T06:43:50;100327.72;;;-3.75;100.00
54872;BME280;43914;57.680;11.982;2023-02-02T06:46:16;100333.05;;;-3.77;100.00
54872;BME280;43914;57.680;11.982;2023-02-02T06:48:42;100340.35;;;-3.79;100.00
54872;BME280;43914;57.680;11.982;2023-02-02T06:51:08;100343.92;;;-3.82;100.00
54872;BME280;43914;57.680;11.982;2023-02-02T06:53:34;100355.39;;;-3.84;100.00
54872;BME280;43914;57.680;11.982;2023-02-02T06:56:02;100355.60;;;-3.87;100.00
54872;BME280;43914;57.680;11.982;2023-02-02T06:58:29;100360.79;;;-3.88;100.00
54872;BME280;43914;57.680;11.982;2023-02-02T07:01:03;100367.55;;;-3.90;100.00
54872;BME280;43914;57.680;11.982;2023-02-02T07:03:31;100375.73;;;-3.93;100.00
54872;BME280;43914;57.680;11.982;2023-02-02T07:05:57;100376.02;;;-3.97;100.00
54872;BME280;43914;57.680;11.982;2023-02-02T07:08:22;100384.70;;;-3.96;100.00
54872;BME280;43914;57.680;11.982;2023-02-02T07:10:48;100387.30;;;-3.95;100.00
54872;BME280;43914;57.680;11.982;2023-02-02T07:13:13;100386.70;;;-3.97;100.00
54872;BME280;43914;57.680;11.982;2023-02-02T07:15:39;100390.94;;;-3.97;100.00
54872;BME280;43914;57.680;11.982;2023-02-02T07:18:05;100386.41;;;-3.98;100.00
54872;BME280;43914;57.680;11.982;2023-02-02T07:20:31;100388.42;;;-3.99;100.00
54872;BME280;43914;57.680;11.982;2023-02-02T07:22:57;100389.67;;;-4.02;100.00
54872;BME280;43914;57.680;11.982;2023-02-02T07:25:22;100402.24;;;-3.99;100.00
54872;BME280;43914;57.680;11.982;2023-02-02T07:27:52;100401.39;;;-4.02;100.00
54872;BME280;43914;57.680;11.982;2023-02-02T07:30:18;100405.23;;;-4.02;100.00
54872;BME280;43914;57.680;11.982;2023-02-02T07:32:48;100410.25;;;-4.01;100.00
54872;BME280;43914;57.680;11.982;2023-02-02T07:35:15;100417.61;;;-4.01;100.00
54872;BME280;43914;57.680;11.982;2023-02-02T07:37:42;100422.64;;;-4.00;100.00
54872;BME280;43914;57.680;11.982;2023-02-02T07:40:10;100427.55;;;-4.01;100.00
54872;BME280;43914;57.680;11.982;2023-02-02T07:42:36;100426.48;;;-4.00;100.00
54872;BME280;43914;57.680;11.982;2023-02-02T07:45:01;100431.71;;;-4.03;100.00
54872;BME280;43914;57.680;11.982;2023-02-02T07:47:27;100442.45;;;-4.04;100.00
54872;BME280;43914;57.680;11.982;2023-02-02T07:49:53;100449.83;;;-4.04;100.00
54872;BME280;43914;57.680;11.982;2023-02-02T07:52:19;100460.58;;;-4.00;100.00
54872;BME280;43914;57.680;11.982;2023-02-02T07:54:44;100463.58;;;-3.98;100.00
54872;BME280;43914;57.680;11.982;2023-02-02T07:57:10;100464.94;;;-3.94;100.00
54872;BME280;43914;57.680;11.982;2023-02-02T07:59:37;100463.98;;;-3.93;100.00
54872;BME280;43914;57.680;11.982;2023-02-02T08:02:03;100474.17;;;-3.91;100.00
54872;BME280;43914;57.680;11.982;2023-02-02T08:04:28;100476.23;;;-3.93;100.00
54872;BME280;43914;57.680;11.982;2023-02-02T08:06:54;100481.94;;;-3.95;100.00
54872;BME280;43914;57.680;11.982;2023-02-02T08:09:19;100490.89;;;-3.98;100.00
54872;BME280;43914;57.680;11.982;2023-02-02T08:11:45;100497.36;;;-3.98;100.00
54872;BME280;43914;57.680;11.982;2023-02-02T08:14:11;100503.27;;;-3.97;100.00
54872;BME280;43914;57.680;11.982;2023-02-02T08:16:38;100514.83;;;-3.97;100.00
54872;BME280;43914;57.680;11.982;2023-02-02T08:19:04;100521.48;;;-3.97;100.00
54872;BME280;43914;57.680;11.982;2023-02-02T08:21:32;100525.13;;;-3.97;100.00
54872;BME280;43914;57.680;11.982;2023-02-02T08:23:58;100528.61;;;-3.96;100.00
54872;BME280;43914;57.680;11.982;2023-02-02T08:26:26;100532.94;;;-3.96;100.00
54872;BME280;43914;57.680;11.982;2023-02-02T08:29:04;100533.56;;;-3.94;100.00
54872;BME280;43914;57.680;11.982;2023-02-02T08:31:39;100537.84;;;-3.93;100.00
54872;BME280;43914;57.680;11.982;2023-02-02T08:34:08;100532.34;;;-3.92;100.00
54872;BME280;43914;57.680;11.982;2023-02-02T08:36:34;100533.21;;;-3.89;100.00
54872;BME280;43914;57.680;11.982;2023-02-02T08:39:12;100533.00;;;-3.85;100.00
54872;BME280;43914;57.680;11.982;2023-02-02T08:41:38;100535.23;;;-3.79;100.00
54872;BME280;43914;57.680;11.982;2023-02-02T08:44:08;100537.59;;;-3.75;100.00
54872;BME280;43914;57.680;11.982;2023-02-02T08:46:36;100536.48;;;-3.74;100.00
54872;BME280;43914;57.680;11.982;2023-02-02T08:49:01;100536.65;;;-3.71;100.00
54872;BME280;43914;57.680;11.982;2023-02-02T08:51:27;100537.34;;;-3.68;99.77
54872;BME280;43914;57.680;11.982;2023-02-02T08:53:52;100550.11;;;-3.68;99.26
54872;BME280;43914;57.680;11.982;2023-02-02T08:56:20;100559.50;;;-3.67;99.22
54872;BME280;43914;57.680;11.982;2023-02-02T08:58:56;100569.48;;;-3.64;99.52
54872;BME280;43914;57.680;11.982;2023-02-02T09:01:31;100578.37;;;-3.63;99.20
54872;BME280;43914;57.680;11.982;2023-02-02T09:04:04;100590.52;;;-3.59;99.41
54872;BME280;43914;57.680;11.982;2023-02-02T09:06:33;100595.76;;;-3.55;99.43
54872;BME280;43914;57.680;11.982;2023-02-02T09:08:59;100603.18;;;-3.48;99.73
54872;BME280;43914;57.680;11.982;2023-02-02T09:11:24;100608.34;;;-3.44;99.19
54872;BME280;43914;57.680;11.982;2023-02-02T09:13:54;100608.63;;;-3.40;98.70
54872;BME280;43914;57.680;11.982;2023-02-02T09:16:20;100615.69;;;-3.35;97.96
54872;BME280;43914;57.680;11.982;2023-02-02T09:18:45;100617.45;;;-3.33;97.88
54872;BME280;43914;57.680;11.982;2023-02-02T09:21:13;100625.16;;;-3.27;97.66
54872;BME280;43914;57.680;11.982;2023-02-02T09:23:41;100631.38;;;-3.25;96.80
54872;BME280;43914;57.680;11.982;2023-02-02T09:26:17;100636.02;;;-3.24;96.21
54872;BME280;43914;57.680;11.982;2023-02-02T09:28:45;100645.34;;;-3.22;95.73
54872;BME280;43914;57.680;11.982;2023-02-02T09:31:12;100657.13;;;-3.20;95.33
54872;BME280;43914;57.680;11.982;2023-02-02T09:33:39;100655.52;;;-3.16;95.12
54872;BME280;43914;57.680;11.982;2023-02-02T09:36:13;100656.04;;;-3.11;95.72
54872;BME280;43914;57.680;11.982;2023-02-02T09:38:39;100661.16;;;-3.03;95.84
54872;BME280;43914;57.680;11.982;2023-02-02T09:47:13;100670.75;;;-2.83;94.95
54872;BME280;43914;57.680;11.982;2023-02-02T09:55:29;100678.27;;;-2.66;92.40
54872;BME280;43914;57.680;11.982;2023-02-02T09:58:30;100685.58;;;-2.60;91.63
54872;BME280;43914;57.680;11.982;2023-02-02T10:01:25;100684.73;;;-2.55;91.70
54872;BME280;43914;57.680;11.982;2023-02-02T10:07:05;100693.34;;;-2.42;91.10
54872;BME280;43914;57.680;11.982;2023-02-02T10:09:38;100694.53;;;-2.33;91.75
54872;BME280;43914;57.680;11.982;2023-02-02T10:14:51;100691.05;;;-2.17;91.87
54872;BME280;43914;57.680;11.982;2023-02-02T10:17:34;100695.96;;;-2.09;91.59
54872;BME280;43914;57.680;11.982;2023-02-02T10:22:37;100711.47;;;-1.97;91.00
54872;BME280;43914;57.680;11.982;2023-02-02T10:25:03;100710.16;;;-1.93;91.27
54872;BME280;43914;57.680;11.982;2023-02-02T10:27:37;100713.96;;;-1.87;91.13
54872;BME280;43914;57.680;11.982;2023-02-02T10:30:27;100710.90;;;-1.78;91.23
54872;BME280;43914;57.680;11.982;2023-02-02T10:33:05;100712.15;;;-1.70;91.01
54872;BME280;43914;57.680;11.982;2023-02-02T10:38:15;100724.45;;;-1.61;89.66
54872;BME280;43914;57.680;11.982;2023-02-02T10:46:39;100738.71;;;-1.55;88.05
54872;BME280;43914;57.680;11.982;2023-02-02T10:49:35;100739.83;;;-1.54;87.84
54872;BME280;43914;57.680;11.982;2023-02-02T10:52:21;100744.02;;;-1.49;88.22
54872;BME280;43914;57.680;11.982;2023-02-02T11:00:56;100752.19;;;-1.31;87.53
54872;BME280;43914;57.680;11.982;2023-02-02T11:03:31;100756.58;;;-1.23;87.97
54872;BME280;43914;57.680;11.982;2023-02-02T11:06:05;100766.60;;;-1.13;87.96
54872;BME280;43914;57.680;11.982;2023-02-02T11:08:52;100773.05;;;-1.05;87.04
54872;BME280;43914;57.680;11.982;2023-02-02T11:14:53;100773.75;;;-0.95;86.72
54872;BME280;43914;57.680;11.982;2023-02-02T11:17:21;100776.59;;;-0.88;86.58
54872;BME280;43914;57.680;11.982;2023-02-02T11:19:48;100777.14;;;-0.86;85.75
54872;BME280;43914;57.680;11.982;2023-02-02T11:22:34;100773.13;;;-0.88;85.26
54872;BME280;43914;57.680;11.982;2023-02-02T11:25:25;100769.13;;;-0.89;85.03
54872;BME280;43914;57.680;11.982;2023-02-02T11:27:51;100767.95;;;-0.90;84.74
54872;BME280;43914;57.680;11.982;2023-02-02T11:30:37;100761.98;;;-0.85;84.98
54872;BME280;43914;57.680;11.982;2023-02-02T11:33:26;100762.86;;;-0.85;83.84
54872;BME280;43914;57.680;11.982;2023-02-02T11:38:24;100757.36;;;-0.82;83.90
54872;BME280;43914;57.680;11.982;2023-02-02T11:40:57;100751.79;;;-0.78;83.81
54872;BME280;43914;57.680;11.982;2023-02-02T11:43:33;100752.77;;;-0.75;83.75
54872;BME280;43914;57.680;11.982;2023-02-02T11:46:16;100754.32;;;-0.71;83.31
54872;BME280;43914;57.680;11.982;2023-02-02T11:51:22;100766.02;;;-0.65;83.66
54872;BME280;43914;57.680;11.982;2023-02-02T11:53:49;100766.30;;;-0.61;83.83
54872;BME280;43914;57.680;11.982;2023-02-02T11:56:24;100763.99;;;-0.59;83.10
54872;BME280;43914;57.680;11.982;2023-02-02T11:58:53;100764.30;;;-0.59;83.04
54872;BME280;43914;57.680;11.982;2023-02-02T12:01:27;100768.80;;;-0.57;82.91
54872;BME280;43914;57.680;11.982;2023-02-02T12:03:56;100772.98;;;-0.60;82.38
54872;BME280;43914;57.680;11.982;2023-02-02T12:06:33;100780.53;;;-0.62;82.29
54872;BME280;43914;57.680;11.982;2023-02-02T12:09:01;100786.52;;;-0.62;82.43
54872;BME280;43914;57.680;11.982;2023-02-02T12:11:39;100786.77;;;-0.60;82.33
54872;BME280;43914;57.680;11.982;2023-02-02T12:17:39;100783.89;;;-0.67;82.14
54872;BME280;43914;57.680;11.982;2023-02-02T12:26:02;100777.35;;;-0.78;81.89
54872;BME280;43914;57.680;11.982;2023-02-02T12:43:50;100783.94;;;-0.77;80.13
54872;BME280;43914;57.680;11.982;2023-02-02T12:57:20;100796.48;;;-0.78;79.33
54872;BME280;43914;57.680;11.982;2023-02-02T13:00:41;100797.05;;;-0.76;78.89
54872;BME280;43914;57.680;11.982;2023-02-02T13:02:39;100798.40;;;-0.75;78.58
54872;BME280;43914;57.680;11.982;2023-02-02T13:08:00;100803.48;;;-0.72;78.52
54872;BME280;43914;57.680;11.982;2023-02-02T13:10:41;100806.10;;;-0.72;77.65
54872;BME280;43914;57.680;11.982;2023-02-02T13:13:21;100810.23;;;-0.71;77.50
54872;BME280;43914;57.680;11.982;2023-02-02T13:15:56;100813.48;;;-0.69;77.48
54872;BME280;43914;57.680;11.982;2023-02-02T13:19:34;100814.72;;;-0.69;76.99
54872;BME280;43914;57.680;11.982;2023-02-02T13:22:01;100820.86;;;-0.69;76.52
54872;BME280;43914;57.680;11.982;2023-02-02T13:24:32;100826.98;;;-0.71;75.80
54872;BME280;43914;57.680;11.982;2023-02-02T13:27:01;100837.82;;;-0.68;75.69
54872;BME280;43914;57.680;11.982;2023-02-02T13:29:55;100841.80;;;-0.67;75.94
54872;BME280;43914;57.680;11.982;2023-02-02T13:35:19;100849.39;;;-0.62;74.88
54872;BME280;43914;57.680;11.982;2023-02-02T13:38:00;100846.10;;;-0.58;75.50
54872;BME280;43914;57.680;11.982;2023-02-02T13:40:29;100846.92;;;-0.52;75.96
54872;BME280;43914;57.680;11.982;2023-02-02T13:43:06;100847.85;;;-0.48;76.42
54872;BME280;43914;57.680;11.982;2023-02-02T13:45:51;100841.27;;;-0.45;76.16
54872;BME280;43914;57.680;11.982;2023-02-02T13:51:43;100849.00;;;-0.29;75.74
54872;BME280;43914;57.680;11.982;2023-02-02T13:57:19;100860.32;;;-0.15;75.64
54872;BME280;43914;57.680;11.982;2023-02-02T14:00:21;100863.04;;;-0.09;74.65
54872;BME280;43914;57.680;11.982;2023-02-02T14:02:48;100867.55;;;-0.03;74.16
54872;BME280;43914;57.680;11.982;2023-02-02T14:05:30;100868.11;;;0.02;73.68
54872;BME280;43914;57.680;11.982;2023-02-02T14:13:18;100880.49;;;0.18;74.10
54872;BME280;43914;57.680;11.982;2023-02-02T14:16:06;100880.15;;;0.20;74.08
54872;BME280;43914;57.680;11.982;2023-02-02T14:26:47;100892.27;;;0.25;73.83
54872;BME280;43914;57.680;11.982;2023-02-02T14:32:40;100891.84;;;0.24;73.57
54872;BME280;43914;57.680;11.982;2023-02-02T14:37:52;100903.36;;;0.25;73.74
54872;BME280;43914;57.680;11.982;2023-02-02T14:40:42;100907.47;;;0.27;73.86
54872;BME280;43914;57.680;11.982;2023-02-02T14:43:34;100912.15;;;0.31;73.83
54872;BME280;43914;57.680;11.982;2023-02-02T14:48:39;100917.98;;;0.31;73.88
54872;BME280;43914;57.680;11.982;2023-02-02T14:51:21;100919.93;;;0.31;73.92
54872;BME280;43914;57.680;11.982;2023-02-02T14:53:58;100919.82;;;0.27;74.34
54872;BME280;43914;57.680;11.982;2023-02-02T14:56:44;100920.53;;;0.24;74.64
54872;BME280;43914;57.680;11.982;2023-02-02T14:59:26;100919.75;;;0.21;75.03
54872;BME280;43914;57.680;11.982;2023-02-02T15:02:07;100927.14;;;0.19;75.43
54872;BME280;43914;57.680;11.982;2023-02-02T15:04:37;100929.19;;;0.17;75.69
54872;BME280;43914;57.680;11.982;2023-02-02T15:07:36;100936.57;;;0.15;75.64
54872;BME280;43914;57.680;11.982;2023-02-02T15:10:08;100931.29;;;0.12;75.90
54872;BME280;43914;57.680;11.982;2023-02-02T15:12:43;100932.36;;;0.09;76.15
54872;BME280;43914;57.680;11.982;2023-02-02T15:15:39;100935.79;;;0.06;75.95